createdAt,value
2022-11-12T00:02:53.973Z,3.75
2022-11-12T00:06:55.479Z,4.00
2022-11-12T00:10:56.988Z,4.20
2022-11-12T00:14:58.534Z,3.92
2022-11-12T00:18:59.980Z,3.67
2022-11-12T00:23:01.502Z,4.18
2022-11-12T00:27:02.992Z,3.65
2022-11-12T00:31:09.344Z,4.07
2022-11-12T00:35:13.922Z,4.55
2022-11-12T00:39:15.796Z,4.10
2022-11-12T00:43:17.289Z,4.97
2022-11-12T00:47:18.893Z,4.47
2022-11-12T00:51:20.332Z,4.10
2022-11-12T00:55:21.870Z,4.15
2022-11-12T00:59:23.335Z,3.67
2022-11-12T01:03:27.820Z,4.28
2022-11-12T01:07:29.380Z,4.13
2022-11-12T01:11:31.026Z,3.50
2022-11-12T01:15:32.553Z,3.90
2022-11-12T01:19:34.060Z,3.40
2022-11-12T01:23:37.640Z,4.28
2022-11-12T01:27:39.076Z,3.90
2022-11-12T01:31:40.559Z,3.70
2022-11-12T01:35:42.032Z,3.97
2022-11-12T01:39:43.531Z,3.85
2022-11-12T01:43:45.583Z,3.47
2022-11-12T01:47:50.155Z,3.55
2022-11-12T01:51:56.337Z,3.42
2022-11-12T01:55:59.704Z,3.35
2022-11-12T02:00:05.010Z,3.75
2022-11-12T02:04:06.502Z,2.85
2022-11-12T02:08:11.052Z,3.50
2022-11-12T02:12:32.537Z,3.25
2022-11-12T02:16:38.247Z,3.75
2022-11-12T02:20:39.743Z,3.80
2022-11-12T02:24:41.184Z,3.72
2022-11-12T02:28:42.661Z,4.72
2022-11-12T02:32:44.270Z,3.63
2022-11-12T02:36:45.764Z,3.05
2022-11-12T02:40:47.222Z,3.72
2022-11-12T02:44:48.780Z,3.42
2022-11-12T02:48:50.204Z,3.25
2022-11-12T02:52:51.712Z,3.70
2022-11-12T02:56:53.196Z,3.90
2022-11-12T03:00:55.541Z,4.88
2022-11-12T03:04:57.065Z,4.68
2022-11-12T03:08:58.939Z,4.78
2022-11-12T03:13:01.811Z,5.10
2022-11-12T03:17:04.193Z,5.63
2022-11-12T03:21:05.786Z,4.50
2022-11-12T03:25:08.554Z,5.22
2022-11-12T03:29:10.018Z,4.93
2022-11-12T03:33:14.380Z,4.63
2022-11-12T03:37:15.925Z,4.22
2022-11-12T03:41:17.349Z,5.93
2022-11-12T03:45:20.803Z,4.35
2022-11-12T03:49:22.343Z,4.63
2022-11-12T03:53:23.806Z,5.72
2022-11-12T03:57:25.222Z,5.28
2022-11-12T04:01:26.687Z,5.10
2022-11-12T04:06:00.422Z,5.50
2022-11-12T04:10:01.928Z,3.60
2022-11-12T04:14:03.490Z,4.18
2022-11-12T04:18:23.902Z,3.38
2022-11-12T04:22:25.664Z,3.90
2022-11-12T04:26:27.080Z,4.30
2022-11-12T04:30:28.792Z,3.90
2022-11-12T04:34:30.377Z,3.75
2022-11-12T04:38:31.891Z,3.00
2022-11-12T04:42:51.961Z,3.72
2022-11-12T04:46:53.565Z,4.03
2022-11-12T04:51:03.978Z,3.67
2022-11-12T04:55:06.290Z,4.05
2022-11-12T04:59:07.821Z,3.88
2022-11-12T05:03:09.307Z,3.88
2022-11-12T05:07:10.976Z,3.83
2022-11-12T05:11:13.055Z,3.28
2022-11-12T05:15:15.231Z,3.67
2022-11-12T05:19:16.779Z,3.45
2022-11-12T05:23:18.213Z,3.28
2022-11-12T05:27:21.007Z,3.65
2022-11-12T05:31:22.536Z,3.95
2022-11-12T05:35:23.997Z,3.00
2022-11-12T05:39:25.766Z,8.80
2022-11-12T05:43:27.158Z,3.65
2022-11-12T05:47:28.604Z,4.07
2022-11-12T05:51:30.124Z,3.72
2022-11-12T05:55:35.937Z,3.40
2022-11-12T05:59:38.509Z,4.57
2022-11-12T06:03:39.981Z,3.45
2022-11-12T06:07:41.431Z,3.45
2022-11-12T06:11:42.884Z,3.42
2022-11-12T06:15:44.856Z,3.65
2022-11-12T06:19:46.268Z,3.63
2022-11-12T06:23:50.360Z,3.92
2022-11-12T06:27:52.285Z,4.15
2022-11-12T06:31:53.735Z,3.80
2022-11-12T06:36:04.136Z,3.55
2022-11-12T06:40:06.154Z,3.53
2022-11-12T06:44:07.609Z,4.43
2022-11-12T06:48:09.044Z,4.22
2022-11-12T06:52:16.217Z,4.05
2022-11-12T06:56:18.166Z,6.07
2022-11-12T07:00:20.475Z,4.72
2022-11-12T07:04:21.979Z,4.85
2022-11-12T07:08:23.699Z,4.68
2022-11-12T07:12:25.297Z,4.65
2022-11-12T07:16:26.819Z,4.25
2022-11-12T07:20:28.256Z,4.80
2022-11-12T07:24:29.802Z,5.03
2022-11-12T07:28:31.643Z,6.78
2022-11-12T07:32:34.484Z,5.70
2022-11-12T07:36:37.702Z,3.80
2022-11-12T07:40:39.124Z,4.25
2022-11-12T07:44:40.581Z,4.85
2022-11-12T07:48:42.218Z,5.28
2022-11-12T07:52:43.691Z,6.15
2022-11-12T07:56:45.394Z,8.45
2022-11-12T08:00:46.839Z,7.38
2022-11-12T08:04:48.289Z,6.75
2022-11-12T08:08:57.463Z,6.28
2022-11-12T08:12:58.937Z,6.25
2022-11-12T08:17:00.441Z,5.05
2022-11-12T08:21:03.488Z,5.47
2022-11-12T08:25:05.312Z,4.80
2022-11-12T08:29:08.672Z,5.10
2022-11-12T08:33:10.417Z,4.47
2022-11-12T08:37:13.440Z,4.95
2022-11-12T08:41:16.232Z,4.10
2022-11-12T08:45:17.686Z,3.83
2022-11-12T08:49:19.122Z,4.13
2022-11-12T08:53:22.030Z,3.90
2022-11-12T08:57:23.466Z,4.07
2022-11-12T09:01:25.061Z,4.00
2022-11-12T09:05:26.717Z,6.50
2022-11-12T09:09:28.242Z,4.88
2022-11-12T09:13:29.919Z,4.35
2022-11-12T09:17:32.520Z,4.00
2022-11-12T09:21:33.962Z,3.90
2022-11-12T09:25:36.458Z,3.35
2022-11-12T09:29:37.893Z,4.60
2022-11-12T09:33:39.371Z,4.03
2022-11-12T09:37:40.852Z,4.28
2022-11-12T09:41:42.895Z,4.35
2022-11-12T09:45:59.993Z,9.98
2022-11-12T09:50:19.187Z,4.35
2022-11-12T09:54:26.368Z,4.88
2022-11-12T09:58:28.309Z,4.97
2022-11-12T10:02:45.526Z,4.05
2022-11-12T10:07:01.562Z,4.97
2022-11-12T10:11:25.318Z,4.68
2022-11-12T10:16:20.969Z,4.90
2022-11-12T10:20:27.890Z,4.68
2022-11-12T10:24:35.225Z,4.88
2022-11-12T10:29:05.756Z,4.75
2022-11-12T10:37:20.770Z,5.47
2022-11-12T10:41:27.104Z,6.00
2022-11-12T10:45:29.128Z,9.07
2022-11-12T10:49:30.602Z,7.95
2022-11-12T10:53:38.222Z,7.82
2022-11-12T10:57:39.711Z,7.38
2022-11-12T11:01:45.655Z,7.10
2022-11-12T11:05:58.141Z,8.98
2022-11-12T11:10:00.971Z,7.72
2022-11-12T11:14:29.103Z,8.65
2022-11-12T11:18:33.970Z,7.18
2022-11-12T11:22:46.795Z,7.25
2022-11-12T11:27:12.297Z,8.18
2022-11-12T11:31:32.714Z,7.53
2022-11-12T11:35:46.486Z,7.45
2022-11-12T11:40:10.507Z,7.32
2022-11-12T11:44:15.131Z,9.15
2022-11-12T11:48:48.840Z,9.15
2022-11-12T11:52:54.303Z,9.88
2022-11-12T11:57:00.136Z,9.68
2022-11-12T12:01:26.106Z,9.50
2022-11-12T12:05:44.822Z,8.68
2022-11-12T12:10:04.825Z,8.80
2022-11-12T12:14:17.246Z,8.75
2022-11-12T12:18:27.857Z,9.10
2022-11-12T12:22:42.004Z,9.57
2022-11-12T12:27:11.629Z,8.80
2022-11-12T12:31:21.698Z,8.80
2022-11-12T12:35:36.825Z,9.50
2022-11-12T12:39:59.998Z,10.60
2022-11-12T12:44:10.443Z,9.77
2022-11-12T12:48:15.175Z,8.65
2022-11-12T12:52:16.668Z,8.50
2022-11-12T12:56:45.779Z,9.80
2022-11-12T13:01:12.192Z,8.52
2022-11-12T13:05:42.907Z,8.52
2022-11-12T13:09:44.392Z,8.27
2022-11-12T13:13:45.879Z,8.57
2022-11-12T13:17:49.391Z,8.95
2022-11-12T13:22:19.453Z,8.38
2022-11-12T13:30:40.839Z,8.63
2022-11-12T13:34:42.329Z,7.68
2022-11-12T13:38:44.602Z,8.48
2022-11-12T13:42:49.604Z,7.75
2022-11-12T13:46:52.622Z,9.00
2022-11-12T13:50:58.487Z,7.60
2022-11-12T13:55:13.274Z,7.50
2022-11-12T13:59:22.472Z,7.72
2022-11-12T14:03:28.785Z,7.80
2022-11-12T14:07:59.737Z,7.68
2022-11-12T14:12:30.253Z,8.10
2022-11-12T14:16:50.552Z,8.57
2022-11-12T14:20:53.160Z,8.70
2022-11-12T14:25:00.772Z,10.15
2022-11-12T14:29:02.375Z,8.85
2022-11-12T14:33:11.310Z,10.13
2022-11-12T14:37:39.914Z,8.98
2022-11-12T14:41:47.716Z,8.45
2022-11-12T14:45:54.086Z,9.30
2022-11-12T14:49:58.261Z,9.65
2022-11-12T14:54:07.311Z,10.48
2022-11-12T14:58:14.879Z,11.32
2022-11-12T15:02:34.278Z,8.73
2022-11-12T15:06:55.538Z,10.88
2022-11-12T15:11:21.317Z,10.50
2022-11-12T15:15:23.385Z,9.68
2022-11-12T15:19:33.585Z,8.80
2022-11-12T15:23:35.534Z,11.10
2022-11-12T15:27:42.299Z,11.35
2022-11-12T15:31:49.874Z,10.02
2022-11-12T15:35:59.715Z,9.00
2022-11-12T15:40:25.938Z,9.07
2022-11-12T15:44:34.073Z,9.88
2022-11-12T15:48:35.538Z,8.95
2022-11-12T15:52:39.126Z,9.15
2022-11-12T15:56:41.370Z,9.20
2022-11-12T16:00:42.960Z,9.02
2022-11-12T16:04:44.789Z,10.43
2022-11-12T16:08:46.536Z,9.48
2022-11-12T16:12:49.419Z,9.60
2022-11-12T16:16:50.859Z,9.80
2022-11-12T16:20:54.631Z,10.93
2022-11-12T16:24:56.042Z,11.38
2022-11-12T16:28:57.735Z,9.55
2022-11-12T16:33:01.346Z,10.65
2022-11-12T16:37:03.042Z,11.02
2022-11-12T16:41:04.593Z,11.13
2022-11-12T16:45:09.373Z,10.63
2022-11-12T16:49:15.329Z,10.55
2022-11-12T16:53:16.947Z,9.90
2022-11-12T16:57:18.469Z,11.60
2022-11-12T17:01:32.236Z,10.05
2022-11-12T17:05:33.750Z,10.68
2022-11-12T17:09:35.185Z,10.77
2022-11-12T17:13:38.814Z,11.02
2022-11-12T17:17:40.341Z,9.52
2022-11-12T17:21:44.258Z,10.75
2022-11-12T17:25:46.055Z,11.27
2022-11-12T17:29:47.651Z,11.90
2022-11-12T17:33:51.742Z,11.95
2022-11-12T17:37:53.217Z,11.70
2022-11-12T17:41:54.697Z,12.23
2022-11-12T17:45:56.868Z,12.25
2022-11-12T17:49:58.301Z,11.45
2022-11-12T17:53:59.865Z,11.10
2022-11-12T17:58:04.042Z,12.35
2022-11-12T18:02:05.662Z,11.90
2022-11-12T18:06:13.461Z,14.30
2022-11-12T18:10:19.371Z,13.50
2022-11-12T18:14:23.019Z,11.93
2022-11-12T18:18:24.479Z,12.75
2022-11-12T18:22:26.248Z,12.20
2022-11-12T18:26:28.041Z,12.98
2022-11-12T18:30:29.554Z,12.75
2022-11-12T18:34:31.148Z,13.00
2022-11-12T18:38:34.673Z,11.88
2022-11-12T18:42:36.192Z,12.13
2022-11-12T18:46:37.712Z,13.07
2022-11-12T18:50:39.285Z,19.50
2022-11-12T18:54:40.787Z,18.02
2022-11-12T18:58:42.461Z,19.05
2022-11-12T19:02:43.963Z,18.65
2022-11-12T19:06:45.522Z,18.08
2022-11-12T19:10:47.025Z,16.83
2022-11-12T19:14:48.571Z,17.70
2022-11-12T19:18:52.381Z,17.00
2022-11-12T19:22:54.272Z,17.95
2022-11-12T19:26:55.792Z,19.05
2022-11-12T19:30:57.437Z,17.23
2022-11-12T19:35:07.492Z,16.70
2022-11-12T19:39:08.959Z,15.48
2022-11-12T19:43:10.437Z,15.73
2022-11-12T19:47:11.961Z,17.73
2022-11-12T19:51:18.977Z,19.25
2022-11-12T19:55:20.452Z,18.42
2022-11-12T19:59:22.027Z,17.58
2022-11-12T20:03:27.165Z,19.20
2022-11-12T20:07:28.673Z,16.70
2022-11-12T20:11:30.798Z,18.67
2022-11-12T20:15:32.295Z,19.40
2022-11-12T20:19:34.146Z,16.80
2022-11-12T20:23:36.910Z,17.17
2022-11-12T20:27:38.397Z,17.15
2022-11-12T20:31:43.922Z,18.85
2022-11-12T20:35:48.355Z,17.73
2022-11-12T20:39:49.817Z,20.33
2022-11-12T20:43:59.327Z,18.20
2022-11-12T20:48:00.787Z,16.55
2022-11-12T20:52:02.403Z,17.65
2022-11-12T20:56:08.651Z,18.20
2022-11-12T21:00:13.806Z,17.25
2022-11-12T21:04:16.287Z,16.20
2022-11-12T21:08:17.708Z,15.32
2022-11-12T21:12:19.198Z,18.13
2022-11-12T21:16:20.798Z,16.60
2022-11-12T21:20:22.285Z,16.88
2022-11-12T21:24:23.741Z,16.17
2022-11-12T21:28:25.531Z,17.42
2022-11-12T21:32:27.272Z,19.08
2022-11-12T21:36:29.332Z,17.17
2022-11-12T21:40:30.807Z,18.92
2022-11-12T21:44:32.362Z,17.50
2022-11-12T21:48:34.741Z,15.52
2022-11-12T21:52:36.223Z,16.05
2022-11-12T21:56:40.061Z,17.40
2022-11-12T22:00:42.758Z,16.63
2022-11-12T22:04:44.445Z,18.42
2022-11-12T22:08:46.442Z,18.27
2022-11-12T22:13:12.113Z,17.38
2022-11-12T22:17:09.391Z,16.60
2022-11-12T22:21:19.055Z,15.63
2022-11-12T22:25:20.548Z,15.20
2022-11-12T22:29:22.000Z,14.52
2022-11-12T22:33:23.501Z,16.10
2022-11-12T22:37:24.929Z,16.13
2022-11-12T22:41:29.024Z,15.50
2022-11-12T22:45:30.494Z,15.68
2022-11-12T22:49:31.966Z,16.10
2022-11-12T22:53:33.734Z,15.90
2022-11-12T22:57:35.270Z,13.85
2022-11-12T23:01:36.834Z,15.27
2022-11-12T23:05:38.394Z,15.93
2022-11-12T23:09:39.842Z,15.25
2022-11-12T23:13:41.662Z,16.38
2022-11-12T23:17:43.108Z,15.65
2022-11-12T23:21:44.565Z,16.33
2022-11-12T23:25:46.118Z,15.80
2022-11-12T23:29:47.550Z,16.40
2022-11-12T23:33:51.701Z,16.02
2022-11-12T23:37:53.437Z,15.93
2022-11-12T23:41:54.891Z,15.25
2022-11-12T23:45:56.711Z,16.67
2022-11-12T23:49:58.172Z,16.73
2022-11-12T23:53:59.622Z,15.55
2022-11-12T23:58:01.092Z,16.40
